Time,TemperatureF,DewpointF,PressureIn,WindDirection,WindDirectionDegrees,WindSpeedMPH,WindSpeedGustMPH,Humidity,HourlyPrecipIn,Conditions,Clouds,dailyrainin,SoftwareType,DateUTC
2013-09-26 00:00:00,76.9,56.9,29.27,North,0,0.0,0.0,50,0.00,,,0.00,WUHU216HW,2013-09-26 05:00:00,
2013-09-26 00:05:00,76.9,56.9,29.27,North,0,0.0,0.0,50,0.00,,,0.00,WUHU216HW,2013-09-26 05:05:00,
2013-09-26 00:30:00,76.0,57.1,29.27,North,0,0.0,0.0,52,0.00,,,0.00,WUHU216HW,2013-09-26 05:30:00,
2013-09-26 00:35:00,76.0,57.1,29.27,North,0,0.0,0.0,52,0.00,,,0.00,WUHU216HW,2013-09-26 05:35:00,
2013-09-26 01:00:00,75.4,57.2,29.27,North,0,0.0,0.0,53,0.00,,,0.00,WUHU216HW,2013-09-26 06:00:00,
2013-09-26 01:05:00,75.4,57.2,29.27,North,0,0.0,0.0,53,0.00,,,0.00,WUHU216HW,2013-09-26 06:05:00,
2013-09-26 01:30:00,74.2,56.3,29.27,North,0,0.0,0.0,54,0.00,,,0.00,WUHU216HW,2013-09-26 06:30:00,
2013-09-26 01:35:00,74.2,56.3,29.27,North,0,0.0,0.0,54,0.00,,,0.00,WUHU216HW,2013-09-26 06:35:00,
2013-09-26 02:00:00,73.6,58.3,29.27,North,0,0.0,0.0,59,0.00,,,0.00,WUHU216HW,2013-09-26 07:00:00,
2013-09-26 02:05:00,73.6,58.3,29.27,North,0,0.0,0.0,59,0.00,,,0.00,WUHU216HW,2013-09-26 07:05:00,
2013-09-26 02:30:00,73.3,59.4,29.27,North,0,0.0,0.0,62,0.00,,,0.00,WUHU216HW,2013-09-26 07:30:00,
2013-09-26 02:35:00,73.3,59.4,29.27,North,0,0.0,0.0,62,0.00,,,0.00,WUHU216HW,2013-09-26 07:35:00,
2013-09-26 03:00:00,72.7,59.8,29.27,North,0,0.0,0.0,64,0.00,,,0.00,WUHU216HW,2013-09-26 08:00:00,
2013-09-26 03:05:00,72.7,59.8,29.27,North,0,0.0,0.0,64,0.00,,,0.00,WUHU216HW,2013-09-26 08:05:00,
2013-09-26 03:30:00,72.4,60.8,29.27,North,0,0.0,0.0,67,0.00,,,0.00,WUHU216HW,2013-09-26 08:30:00,
2013-09-26 03:35:00,72.4,60.8,29.27,North,0,0.0,0.0,67,0.00,,,0.00,WUHU216HW,2013-09-26 08:35:00,
2013-09-26 04:00:00,71.3,60.1,29.27,North,0,0.0,0.0,68,0.00,,,0.00,WUHU216HW,2013-09-26 09:00:00,
2013-09-26 04:05:00,71.3,60.1,29.27,North,0,0.0,0.0,68,0.00,,,0.00,WUHU216HW,2013-09-26 09:05:00,
2013-09-26 04:30:00,70.7,61.2,29.26,North,0,0.0,0.0,72,0.00,,,0.00,WUHU216HW,2013-09-26 09:30:00,
2013-09-26 04:35:00,70.7,61.2,29.26,North,0,0.0,0.0,72,0.00,,,0.00,WUHU216HW,2013-09-26 09:35:00,
2013-09-26 05:00:00,70.0,61.3,29.27,North,0,0.0,0.0,74,0.00,,,0.00,WUHU216HW,2013-09-26 10:00:00,
2013-09-26 05:05:00,70.0,61.3,29.27,North,0,0.0,0.0,74,0.00,,,0.00,WUHU216HW,2013-09-26 10:05:00,
2013-09-26 05:30:00,69.5,61.1,29.27,North,0,0.0,0.0,75,0.00,,,0.00,WUHU216HW,2013-09-26 10:30:00,
2013-09-26 05:35:00,69.5,61.1,29.27,North,0,0.0,0.0,75,0.00,,,0.00,WUHU216HW,2013-09-26 10:35:00,
2013-09-26 06:00:00,68.6,60.8,29.28,North,0,0.0,0.0,76,0.00,,,0.00,WUHU216HW,2013-09-26 11:00:00,
2013-09-26 06:05:00,68.6,60.8,29.28,North,0,0.0,0.0,76,0.00,,,0.00,WUHU216HW,2013-09-26 11:05:00,
2013-09-26 06:30:00,68.4,61.3,29.29,North,0,0.0,0.0,78,0.00,,,0.00,WUHU216HW,2013-09-26 11:30:00,
2013-09-26 06:35:00,68.4,61.3,29.29,North,0,0.0,0.0,78,0.00,,,0.00,WUHU216HW,2013-09-26 11:35:00,
2013-09-26 07:00:00,70.2,63.4,29.30,North,0,0.0,0.0,79,0.00,,,0.00,WUHU216HW,2013-09-26 12:00:00,
2013-09-26 07:05:00,70.2,63.4,29.30,North,0,0.0,0.0,79,0.00,,,0.00,WUHU216HW,2013-09-26 12:05:00,
2013-09-26 07:30:00,71.3,64.8,29.30,North,0,0.0,0.0,80,0.00,,,0.00,WUHU216HW,2013-09-26 12:30:00,
2013-09-26 07:35:00,71.3,64.8,29.30,North,0,0.0,0.0,80,0.00,,,0.00,WUHU216HW,2013-09-26 12:35:00,
2013-09-26 08:00:00,71.5,65.4,29.31,North,0,0.0,0.0,81,0.00,,,0.00,WUHU216HW,2013-09-26 13:00:00,
2013-09-26 08:05:00,71.5,65.4,29.31,North,0,0.0,0.0,81,0.00,,,0.00,WUHU216HW,2013-09-26 13:05:00,
2013-09-26 08:30:00,71.8,65.7,29.31,North,0,0.0,0.0,81,0.00,,,0.00,WUHU216HW,2013-09-26 13:30:00,
2013-09-26 08:35:00,71.8,65.7,29.31,North,0,0.0,0.0,81,0.00,,,0.00,WUHU216HW,2013-09-26 13:35:00,
2013-09-26 09:00:00,73.1,67.0,29.32,North,0,0.0,0.0,81,0.00,,,0.00,WUHU216HW,2013-09-26 14:00:00,
2013-09-26 09:05:00,73.1,67.0,29.32,North,0,0.0,0.0,81,0.00,,,0.00,WUHU216HW,2013-09-26 14:05:00,
2013-09-26 09:30:00,74.5,68.4,29.33,North,0,0.0,0.0,81,0.00,,,0.00,WUHU216HW,2013-09-26 14:30:00,
2013-09-26 09:35:00,74.5,68.4,29.33,North,0,0.0,0.0,81,0.00,,,0.00,WUHU216HW,2013-09-26 14:35:00,
2013-09-26 10:00:00,76.9,69.1,29.34,North,0,0.0,0.0,77,0.00,,,0.00,WUHU216HW,2013-09-26 15:00:00,
2013-09-26 10:05:00,76.9,69.1,29.34,North,0,0.0,0.0,77,0.00,,,0.00,WUHU216HW,2013-09-26 15:05:00,
2013-09-26 10:30:00,78.8,69.4,29.34,North,0,0.0,0.0,73,0.00,,,0.00,WUHU216HW,2013-09-26 15:30:00,
2013-09-26 10:35:00,78.8,69.4,29.34,North,0,0.0,0.0,73,0.00,,,0.00,WUHU216HW,2013-09-26 15:35:00,
2013-09-26 11:00:00,81.4,69.8,29.34,North,0,0.0,0.0,68,0.00,,,0.00,WUHU216HW,2013-09-26 16:00:00,
2013-09-26 11:05:00,81.4,69.8,29.34,North,0,0.0,0.0,68,0.00,,,0.00,WUHU216HW,2013-09-26 16:05:00,
2013-09-26 11:30:00,81.9,68.5,29.34,North,0,0.0,0.0,64,0.00,,,0.00,WUHU216HW,2013-09-26 16:30:00,
2013-09-26 11:35:00,81.9,68.5,29.34,North,0,0.0,0.0,64,0.00,,,0.00,WUHU216HW,2013-09-26 16:35:00,
2013-09-26 12:00:00,83.5,68.7,29.33,North,0,0.0,0.0,61,0.00,,,0.00,WUHU216HW,2013-09-26 17:00:00,
2013-09-26 12:05:00,83.5,68.7,29.33,North,0,0.0,0.0,61,0.00,,,0.00,WUHU216HW,2013-09-26 17:05:00,
2013-09-26 12:30:00,85.3,67.9,29.33,North,0,0.0,0.0,56,0.00,,,0.00,WUHU216HW,2013-09-26 17:30:00,
2013-09-26 12:35:00,85.3,67.9,29.33,North,0,0.0,0.0,56,0.00,,,0.00,WUHU216HW,2013-09-26 17:35:00,
2013-09-26 13:00:00,86.4,66.7,29.32,North,0,0.0,0.0,52,0.00,,,0.00,WUHU216HW,2013-09-26 18:00:00,
2013-09-26 13:05:00,86.4,66.7,29.32,North,0,0.0,0.0,52,0.00,,,0.00,WUHU216HW,2013-09-26 18:05:00,
2013-09-26 13:30:00,87.8,66.3,29.31,North,0,0.0,0.0,49,0.00,,,0.00,WUHU216HW,2013-09-26 18:30:00,
2013-09-26 13:35:00,87.8,66.3,29.31,North,0,0.0,0.0,49,0.00,,,0.00,WUHU216HW,2013-09-26 18:35:00,
2013-09-26 14:00:00,89.3,66.3,29.29,North,0,0.0,0.0,47,0.00,,,0.00,WUHU216HW,2013-09-26 19:00:00,
2013-09-26 14:05:00,89.3,66.3,29.29,North,0,0.0,0.0,47,0.00,,,0.00,WUHU216HW,2013-09-26 19:05:00,
2013-09-26 14:30:00,90.0,65.0,29.29,North,0,0.0,0.0,44,0.00,,,0.00,WUHU216HW,2013-09-26 19:30:00,
2013-09-26 14:35:00,90.0,65.0,29.29,North,0,0.0,0.0,44,0.00,,,0.00,WUHU216HW,2013-09-26 19:35:00,
2013-09-26 15:00:00,90.7,65.7,29.28,North,0,0.0,0.0,44,0.00,,,0.00,WUHU216HW,2013-09-26 20:00:00,
2013-09-26 15:05:00,90.7,65.7,29.28,North,0,0.0,0.0,44,0.00,,,0.00,WUHU216HW,2013-09-26 20:05:00,
2013-09-26 15:30:00,91.4,66.3,29.26,North,0,0.0,0.0,44,0.00,,,0.00,WUHU216HW,2013-09-26 20:30:00,
2013-09-26 15:35:00,91.4,66.3,29.26,North,0,0.0,0.0,44,0.00,,,0.00,WUHU216HW,2013-09-26 20:35:00,
2013-09-26 16:00:00,92.2,66.3,29.26,North,0,0.0,0.0,43,0.00,,,0.00,WUHU216HW,2013-09-26 21:00:00,
2013-09-26 16:05:00,92.2,66.3,29.26,North,0,0.0,0.0,43,0.00,,,0.00,WUHU216HW,2013-09-26 21:05:00,
2013-09-26 16:30:00,91.4,67.0,29.26,North,0,0.0,0.0,45,0.00,,,0.00,WUHU216HW,2013-09-26 21:30:00,
2013-09-26 16:35:00,91.4,67.0,29.26,North,0,0.0,0.0,45,0.00,,,0.00,WUHU216HW,2013-09-26 21:35:00,
2013-09-26 17:00:00,90.2,66.5,29.25,North,0,0.0,0.0,46,0.00,,,0.00,WUHU216HW,2013-09-26 22:00:00,
2013-09-26 17:05:00,90.2,66.5,29.25,North,0,0.0,0.0,46,0.00,,,0.00,WUHU216HW,2013-09-26 22:05:00,
2013-09-26 17:30:00,89.5,67.2,29.25,North,0,0.0,0.0,48,0.00,,,0.00,WUHU216HW,2013-09-26 22:30:00,
2013-09-26 17:35:00,89.5,67.2,29.25,North,0,0.0,0.0,48,0.00,,,0.00,WUHU216HW,2013-09-26 22:35:00,
2013-09-26 18:00:00,88.4,68.0,29.24,North,0,0.0,0.0,51,0.00,,,0.00,WUHU216HW,2013-09-26 23:00:00,
2013-09-26 18:05:00,88.4,68.0,29.24,North,0,0.0,0.0,51,0.00,,,0.00,WUHU216HW,2013-09-26 23:05:00,
2013-09-26 18:30:00,89.3,68.2,29.25,North,0,0.0,0.0,50,0.00,,,0.00,WUHU216HW,2013-09-26 23:30:00,
2013-09-26 18:35:00,89.3,68.2,29.25,North,0,0.0,0.0,50,0.00,,,0.00,WUHU216HW,2013-09-26 23:35:00,
2013-09-26 19:00:00,87.5,68.2,29.25,North,0,0.0,0.0,53,0.00,,,0.00,WUHU216HW,2013-09-27 00:00:00,
2013-09-26 19:05:00,87.5,68.2,29.25,North,0,0.0,0.0,53,0.00,,,0.00,WUHU216HW,2013-09-27 00:05:00,
2013-09-26 19:30:00,86.2,68.7,29.25,North,0,0.0,0.0,56,0.00,,,0.00,WUHU216HW,2013-09-27 00:30:00,
2013-09-26 19:35:00,86.2,68.7,29.25,North,0,0.0,0.0,56,0.00,,,0.00,WUHU216HW,2013-09-27 00:35:00,
2013-09-26 20:00:00,84.8,69.0,29.25,North,0,0.0,0.0,59,0.00,,,0.00,WUHU216HW,2013-09-27 01:00:00,
2013-09-26 20:05:00,84.8,69.0,29.25,North,0,0.0,0.0,59,0.00,,,0.00,WUHU216HW,2013-09-27 01:05:00,
2013-09-26 20:30:00,84.1,69.7,29.26,North,0,0.0,0.0,62,0.00,,,0.00,WUHU216HW,2013-09-27 01:30:00,
2013-09-26 20:35:00,84.1,69.7,29.26,North,0,0.0,0.0,62,0.00,,,0.00,WUHU216HW,2013-09-27 01:35:00,
2013-09-26 21:00:00,83.2,71.0,29.27,North,0,0.0,0.0,67,0.00,,,0.00,WUHU216HW,2013-09-27 02:00:00,
2013-09-26 21:05:00,83.2,71.0,29.27,North,0,0.0,0.0,67,0.00,,,0.00,WUHU216HW,2013-09-27 02:05:00,
2013-09-26 21:30:00,82.4,71.2,29.29,North,0,0.0,0.0,69,0.00,,,0.00,WUHU216HW,2013-09-27 02:30:00,
2013-09-26 21:35:00,82.4,71.2,29.29,North,0,0.0,0.0,69,0.00,,,0.00,WUHU216HW,2013-09-27 02:35:00,
2013-09-26 22:00:00,81.2,70.9,29.29,North,0,0.0,0.0,71,0.00,,,0.00,WUHU216HW,2013-09-27 03:00:00,
2013-09-26 22:05:00,81.2,70.9,29.29,North,0,0.0,0.0,71,0.00,,,0.00,WUHU216HW,2013-09-27 03:05:00,
2013-09-26 22:30:00,80.6,72.0,29.30,North,0,0.0,0.0,75,0.00,,,0.00,WUHU216HW,2013-09-27 03:30:00,
2013-09-26 22:35:00,80.6,72.0,29.30,North,0,0.0,0.0,75,0.00,,,0.00,WUHU216HW,2013-09-27 03:35:00,
2013-09-26 23:00:00,80.3,71.6,29.31,North,0,0.0,0.0,75,0.00,,,0.00,WUHU216HW,2013-09-27 04:00:00,
2013-09-26 23:01:00,80.3,71.6,29.31,North,0,0.0,0.0,75,0.00,,,0.00,WUHU216HW,2013-09-27 04:01:00,
2013-09-26 23:02:00,80.3,71.6,29.31,North,0,0.0,0.0,75,0.00,,,0.00,WUHU216HW,2013-09-27 04:02:00,
2013-09-26 23:03:00,80.3,71.6,29.31,North,0,0.0,0.0,75,0.00,,,0.00,WUHU216HW,2013-09-27 04:03:00,
2013-09-26 23:08:00,80.3,71.6,29.31,North,0,0.0,0.0,75,0.00,,,0.00,WUHU216HW,2013-09-27 04:08:00,
2013-09-26 23:30:00,79.0,70.4,29.32,North,0,0.0,0.0,75,0.00,,,0.00,WUHU216HW,2013-09-27 04:30:00,
2013-09-26 23:35:00,79.0,70.4,29.32,North,0,0.0,0.0,75,0.00,,,0.00,WUHU216HW,2013-09-27 04:35:00,